createdAt,value
2023-02-16T00:02:24.410Z,77.92
2023-02-16T00:07:17.211Z,78.12
2023-02-16T00:12:36.970Z,77.97
2023-02-16T00:17:29.748Z,77.77
2023-02-16T00:22:22.520Z,77.63
2023-02-16T00:27:18.625Z,77.85
2023-02-16T00:32:13.629Z,78.02
2023-02-16T00:37:12.081Z,78.27
2023-02-16T00:42:24.210Z,78.16
2023-02-16T00:47:22.285Z,77.97
2023-02-16T00:52:38.384Z,77.80
2023-02-16T00:57:35.278Z,78.28
2023-02-16T01:02:28.390Z,78.00
2023-02-16T01:07:39.254Z,77.78
2023-02-16T01:12:32.394Z,78.05
2023-02-16T01:17:25.933Z,78.17
2023-02-16T01:22:21.635Z,78.05
2023-02-16T01:27:15.060Z,77.77
2023-02-16T01:32:13.724Z,77.56
2023-02-16T01:37:06.617Z,77.99
2023-02-16T01:42:12.651Z,77.92
2023-02-16T01:47:25.986Z,77.99
2023-02-16T01:52:28.588Z,77.79
2023-02-16T01:57:45.634Z,77.60
2023-02-16T02:02:44.206Z,77.62
2023-02-16T02:07:54.182Z,77.78
2023-02-16T02:13:29.175Z,77.48
2023-02-16T02:18:22.426Z,77.65
2023-02-16T02:23:53.807Z,77.85
2023-02-16T02:29:24.182Z,77.92
2023-02-16T02:34:24.071Z,77.42
2023-02-16T02:39:46.554Z,77.75
2023-02-16T02:45:13.011Z,77.62
2023-02-16T02:50:39.261Z,77.73
2023-02-16T02:55:55.419Z,77.52
2023-02-16T03:00:51.865Z,77.53
2023-02-16T03:05:52.262Z,77.82
2023-02-16T03:11:09.068Z,77.69
2023-02-16T03:16:06.709Z,77.98
2023-02-16T03:21:17.497Z,78.01
2023-02-16T03:26:29.411Z,77.74
2023-02-16T03:31:29.603Z,77.82
2023-02-16T03:36:28.366Z,78.02
2023-02-16T03:41:21.194Z,78.07
2023-02-16T03:46:14.537Z,77.86
2023-02-16T03:51:07.375Z,77.74
2023-02-16T03:56:00.173Z,77.73
2023-02-16T04:00:54.285Z,77.87
2023-02-16T04:05:49.163Z,77.88
2023-02-16T04:10:42.058Z,78.03
2023-02-16T04:15:34.980Z,78.16
2023-02-16T04:20:32.973Z,77.97
2023-02-16T04:25:26.460Z,77.84
2023-02-16T04:30:25.798Z,78.02
2023-02-16T04:35:19.319Z,77.82
2023-02-16T04:40:14.151Z,77.91
2023-02-16T04:45:07.441Z,77.79
2023-02-16T04:50:00.208Z,77.85
2023-02-16T04:54:53.096Z,77.59
2023-02-16T04:59:46.512Z,77.36
2023-02-16T05:04:39.573Z,77.23
2023-02-16T05:09:32.400Z,77.43
2023-02-16T05:14:43.217Z,77.79
2023-02-16T05:19:36.149Z,77.71
2023-02-16T05:24:28.943Z,77.79
2023-02-16T05:29:21.772Z,77.31
2023-02-16T05:34:15.040Z,77.46
2023-02-16T05:39:07.799Z,77.88
2023-02-16T05:44:04.591Z,77.79
2023-02-16T05:48:57.386Z,77.84
2023-02-16T05:53:50.361Z,77.59
2023-02-16T05:58:43.147Z,77.63
2023-02-16T06:03:37.025Z,77.64
2023-02-16T06:08:30.659Z,77.90
2023-02-16T06:13:25.364Z,77.93
2023-02-16T06:18:18.400Z,77.34
2023-02-16T06:23:13.568Z,77.59
2023-02-16T06:28:06.596Z,77.82
2023-02-16T06:32:59.383Z,77.47
2023-02-16T06:37:52.267Z,77.48
2023-02-16T06:42:45.275Z,77.76
2023-02-16T06:47:38.824Z,77.66
2023-02-16T06:52:31.607Z,77.75
2023-02-16T06:57:24.427Z,77.82
2023-02-16T07:02:17.252Z,78.04
2023-02-16T07:07:10.539Z,77.97
2023-02-16T07:12:03.316Z,77.90
2023-02-16T07:16:59.164Z,77.88
2023-02-16T07:21:52.135Z,78.01
2023-02-16T07:26:44.960Z,77.70
2023-02-16T07:31:37.817Z,77.90
2023-02-16T07:36:30.687Z,78.12
2023-02-16T07:41:23.576Z,77.65
2023-02-16T07:46:16.589Z,77.52
2023-02-16T07:51:09.422Z,77.61
2023-02-16T07:56:02.228Z,77.28
2023-02-16T08:01:07.515Z,77.41
2023-02-16T08:06:04.535Z,77.25
2023-02-16T08:10:57.285Z,77.28
2023-02-16T08:15:50.049Z,77.37
2023-02-16T08:21:02.337Z,77.18
2023-02-16T08:25:59.236Z,76.68
2023-02-16T08:30:53.355Z,76.80
2023-02-16T08:35:46.168Z,76.43
2023-02-16T08:40:38.920Z,76.46
2023-02-16T08:45:31.922Z,76.31
2023-02-16T08:50:24.929Z,76.22
2023-02-16T08:55:18.373Z,75.52
2023-02-16T09:00:29.372Z,75.26
2023-02-16T09:05:22.569Z,75.33
2023-02-16T09:10:15.361Z,74.66
2023-02-16T09:15:08.704Z,74.20
2023-02-16T09:20:02.289Z,73.54
2023-02-16T09:24:55.059Z,73.45
2023-02-16T09:29:47.878Z,74.08
2023-02-16T09:34:40.669Z,73.02
2023-02-16T09:39:33.848Z,71.75
2023-02-16T09:45:09.866Z,72.08
2023-02-16T09:50:14.682Z,71.54
2023-02-16T09:55:17.332Z,70.94
2023-02-16T10:00:37.560Z,71.27
2023-02-16T10:05:42.559Z,71.02
2023-02-16T10:10:51.076Z,70.56
2023-02-16T10:15:46.150Z,69.94
2023-02-16T10:20:44.017Z,69.43
2023-02-16T10:25:54.921Z,68.16
2023-02-16T10:30:58.370Z,68.48
2023-02-16T10:35:58.324Z,67.82
2023-02-16T10:41:05.774Z,67.07
2023-02-16T10:46:02.075Z,67.16
2023-02-16T10:51:02.388Z,66.74
2023-02-16T10:55:58.160Z,65.52
2023-02-16T11:00:58.001Z,65.34
2023-02-16T11:05:53.432Z,64.49
2023-02-16T11:10:52.540Z,64.95
2023-02-16T11:15:54.638Z,64.13
2023-02-16T11:20:47.824Z,64.27
2023-02-16T11:25:40.759Z,63.74
2023-02-16T11:30:36.700Z,63.04
2023-02-16T11:35:32.987Z,62.04
2023-02-16T11:40:34.923Z,61.57
2023-02-16T11:45:36.609Z,62.01
2023-02-16T11:50:35.270Z,61.48
2023-02-16T11:55:33.688Z,61.50
2023-02-16T12:00:28.202Z,59.97
2023-02-16T12:05:50.263Z,59.19
2023-02-16T12:11:28.193Z,59.56
2023-02-16T12:16:30.914Z,60.09
2023-02-16T12:21:46.464Z,60.59
2023-02-16T12:26:42.708Z,60.83
2023-02-16T12:31:54.355Z,61.54
2023-02-16T12:36:59.197Z,62.07
2023-02-16T12:42:00.591Z,61.48
2023-02-16T12:47:12.930Z,61.58
2023-02-16T12:52:18.569Z,62.23
2023-02-16T12:57:17.476Z,62.68
2023-02-16T13:02:40.492Z,63.03
2023-02-16T13:07:39.941Z,62.88
2023-02-16T13:12:40.623Z,63.70
2023-02-16T13:17:39.648Z,63.55
2023-02-16T13:22:38.431Z,63.35
2023-02-16T13:27:46.814Z,63.12
2023-02-16T13:33:19.967Z,63.97
2023-02-16T13:38:43.711Z,64.00
2023-02-16T13:43:42.429Z,63.88
2023-02-16T13:48:47.225Z,63.72
2023-02-16T13:53:43.260Z,64.30
2023-02-16T13:58:36.576Z,64.23
2023-02-16T14:03:38.809Z,64.45
2023-02-16T14:08:32.805Z,64.85
2023-02-16T14:13:33.545Z,65.04
2023-02-16T14:18:48.138Z,65.41
2023-02-16T14:23:41.708Z,65.58
2023-02-16T14:28:35.458Z,66.13
2023-02-16T14:33:51.390Z,66.35
2023-02-16T14:38:47.289Z,66.71
2023-02-16T14:43:53.973Z,66.95
2023-02-16T14:49:26.011Z,67.36
2023-02-16T14:54:37.888Z,67.51
2023-02-16T14:59:33.440Z,67.75
2023-02-16T15:04:31.577Z,67.94
2023-02-16T15:09:32.032Z,68.12
2023-02-16T15:14:26.956Z,68.36
2023-02-16T15:19:28.945Z,68.82
2023-02-16T15:24:25.413Z,68.99
2023-02-16T15:29:18.789Z,69.33
2023-02-16T15:34:28.480Z,69.38
2023-02-16T15:39:45.252Z,69.69
2023-02-16T15:44:42.058Z,69.79
2023-02-16T15:49:38.992Z,70.10
2023-02-16T15:54:35.648Z,70.30
2023-02-16T15:59:55.316Z,70.35
2023-02-16T16:04:55.043Z,70.63
2023-02-16T16:09:48.843Z,70.94
2023-02-16T16:14:49.165Z,71.10
2023-02-16T16:19:42.046Z,71.18
2023-02-16T16:24:39.141Z,71.49
2023-02-16T16:29:42.369Z,71.59
2023-02-16T16:34:42.273Z,71.68
2023-02-16T16:39:40.505Z,71.73
2023-02-16T16:44:39.169Z,72.03
2023-02-16T16:49:31.985Z,72.10
2023-02-16T16:54:36.590Z,72.33
2023-02-16T16:59:29.381Z,72.56
2023-02-16T17:04:22.285Z,72.61
2023-02-16T17:09:16.865Z,72.58
2023-02-16T17:14:19.001Z,72.64
2023-02-16T17:19:16.681Z,72.78
2023-02-16T17:24:10.344Z,72.27
2023-02-16T17:29:03.681Z,72.38
2023-02-16T17:33:56.463Z,72.35
2023-02-16T17:38:49.949Z,72.61
2023-02-16T17:43:42.718Z,72.68
2023-02-16T17:48:35.479Z,72.84
2023-02-16T17:53:29.562Z,72.54
2023-02-16T17:58:24.246Z,72.62
2023-02-16T18:03:18.195Z,72.51
2023-02-16T18:08:12.531Z,72.43
2023-02-16T18:13:07.137Z,72.61
2023-02-16T18:18:01.031Z,72.76
2023-02-16T18:22:54.774Z,72.63
2023-02-16T18:27:47.816Z,73.00
2023-02-16T18:32:41.923Z,72.88
2023-02-16T18:37:38.345Z,72.63
2023-02-16T18:42:31.118Z,72.65
2023-02-16T18:47:26.424Z,72.75
2023-02-16T18:52:20.155Z,72.97
2023-02-16T18:57:13.039Z,73.38
2023-02-16T19:02:05.939Z,73.57
2023-02-16T19:06:59.365Z,73.43
2023-02-16T19:11:54.061Z,73.66
2023-02-16T19:16:47.753Z,73.40
2023-02-16T19:21:41.244Z,73.59
2023-02-16T19:26:34.097Z,73.73
2023-02-16T19:31:30.077Z,73.72
2023-02-16T19:36:23.933Z,74.13
2023-02-16T19:41:23.803Z,74.18
2023-02-16T19:46:17.201Z,74.32
2023-02-16T19:51:11.375Z,74.57
2023-02-16T19:56:09.368Z,74.54
2023-02-16T20:01:10.923Z,74.64
2023-02-16T20:06:20.879Z,74.59
2023-02-16T20:11:15.765Z,74.81
2023-02-16T20:16:10.218Z,74.59
2023-02-16T20:21:08.992Z,74.96
2023-02-16T20:26:05.376Z,75.28
2023-02-16T20:30:58.401Z,74.99
2023-02-16T20:35:51.217Z,74.88
2023-02-16T20:40:44.995Z,75.32
2023-02-16T20:45:41.379Z,75.35
2023-02-16T20:50:34.306Z,75.62
2023-02-16T20:55:27.203Z,75.52
2023-02-16T21:00:21.835Z,75.49
2023-02-16T21:05:15.025Z,75.45
2023-02-16T21:10:10.271Z,75.70
2023-02-16T21:15:03.355Z,76.24
2023-02-16T21:19:56.225Z,76.84
2023-02-16T21:24:49.070Z,76.94
2023-02-16T21:29:41.869Z,77.05
2023-02-16T21:34:34.706Z,77.18
2023-02-16T21:39:41.430Z,77.16
2023-02-16T21:44:34.411Z,77.10
2023-02-16T21:49:27.175Z,77.59
2023-02-16T21:54:41.444Z,77.97
2023-02-16T21:59:35.102Z,77.85
2023-02-16T22:04:28.697Z,77.68
2023-02-16T22:09:24.488Z,77.72
2023-02-16T22:14:17.908Z,77.86
2023-02-16T22:19:14.171Z,77.53
2023-02-16T22:24:07.740Z,77.37
2023-02-16T22:29:01.051Z,77.28
2023-02-16T22:34:03.099Z,77.54
2023-02-16T22:38:56.465Z,77.56
2023-02-16T22:43:49.488Z,77.62
2023-02-16T22:48:43.152Z,77.76
2023-02-16T22:53:38.166Z,77.84
2023-02-16T22:58:31.134Z,77.72
2023-02-16T23:03:24.210Z,77.76
2023-02-16T23:08:17.586Z,77.72
2023-02-16T23:13:10.899Z,77.64
2023-02-16T23:18:03.946Z,77.97
2023-02-16T23:22:57.674Z,78.21
2023-02-16T23:27:53.767Z,78.04
2023-02-16T23:32:47.843Z,78.24
2023-02-16T23:37:40.876Z,78.37
2023-02-16T23:42:33.767Z,78.72
2023-02-16T23:47:26.606Z,78.38
2023-02-16T23:52:19.950Z,78.15
2023-02-16T23:57:13.049Z,78.21
